FRA weather

Public forecast

Using degrees Celsius for public forecast. Weather courtesy of forecast.io.

Current aviation weather report (METAR) for Frankfurt am Main Airport

Retrieved 2020/08/13 02:20 UTC (7 minutes ago):

EDDF 130220Z 35005KT CAVOK 23/18 Q1012 NOSIG

Aviation forecast (TAF) for Frankfurt am Main Airport

Retrieved 2020-08-13 00:28 UTC (2 hours ago):

TAF EDDF 122300Z 1300/1406 04005KT CAVOK TEMPO 1305/1311 20010KT SHRA BKN060CB PROB30 TEMPO 1305/1309 26015G25KT 4500 TSRA BKN050CB BECMG 1306/1308 19006KT PROB30 TEMPO 1400/1406 TSRA SCT070CB